sensor_id;sensor_type;location;lat;lon;timestamp;P1;durP1;ratioP1;P2;durP2;ratioP2
20697;SDS011;10508;50.956;4.640;2022-07-22T00:00:30;4.07;;;1.60;;
20697;SDS011;10508;50.956;4.640;2022-07-22T00:02:56;5.50;;;1.63;;
20697;SDS011;10508;50.956;4.640;2022-07-22T00:05:21;4.75;;;1.83;;
20697;SDS011;10508;50.956;4.640;2022-07-22T00:07:47;5.93;;;1.65;;
20697;SDS011;10508;50.956;4.640;2022-07-22T00:10:12;4.60;;;1.65;;
20697;SDS011;10508;50.956;4.640;2022-07-22T00:12:38;3.97;;;1.52;;
20697;SDS011;10508;50.956;4.640;2022-07-22T00:15:05;7.57;;;1.42;;
20697;SDS011;10508;50.956;4.640;2022-07-22T00:17:31;6.70;;;1.73;;
20697;SDS011;10508;50.956;4.640;2022-07-22T00:19:57;4.32;;;1.80;;
20697;SDS011;10508;50.956;4.640;2022-07-22T00:22:23;2.40;;;1.35;;
20697;SDS011;10508;50.956;4.640;2022-07-22T00:24:48;3.70;;;1.83;;
20697;SDS011;10508;50.956;4.640;2022-07-22T00:27:14;8.43;;;1.80;;
20697;SDS011;10508;50.956;4.640;2022-07-22T00:29:40;3.58;;;1.77;;
20697;SDS011;10508;50.956;4.640;2022-07-22T00:32:06;3.03;;;1.60;;
20697;SDS011;10508;50.956;4.640;2022-07-22T00:34:32;5.65;;;1.83;;
20697;SDS011;10508;50.956;4.640;2022-07-22T00:36:57;4.70;;;1.35;;
20697;SDS011;10508;50.956;4.640;2022-07-22T00:39:23;3.80;;;1.88;;
20697;SDS011;10508;50.956;4.640;2022-07-22T00:41:49;4.95;;;1.90;;
20697;SDS011;10508;50.956;4.640;2022-07-22T00:44:14;3.33;;;1.42;;
20697;SDS011;10508;50.956;4.640;2022-07-22T00:46:40;3.50;;;1.40;;
20697;SDS011;10508;50.956;4.640;2022-07-22T00:49:06;6.28;;;1.73;;
20697;SDS011;10508;50.956;4.640;2022-07-22T00:51:33;8.15;;;1.77;;
20697;SDS011;10508;50.956;4.640;2022-07-22T00:54:00;2.70;;;1.38;;
20697;SDS011;10508;50.956;4.640;2022-07-22T00:56:27;5.72;;;1.52;;
20697;SDS011;10508;50.956;4.640;2022-07-22T00:58:55;4.63;;;1.85;;
20697;SDS011;10508;50.956;4.640;2022-07-22T01:01:22;2.40;;;1.25;;
20697;SDS011;10508;50.956;4.640;2022-07-22T01:03:48;3.65;;;1.05;;
20697;SDS011;10508;50.956;4.640;2022-07-22T01:06:13;5.88;;;1.42;;
20697;SDS011;10508;50.956;4.640;2022-07-22T01:08:39;3.13;;;1.30;;
20697;SDS011;10508;50.956;4.640;2022-07-22T01:11:06;1.92;;;1.40;;
20697;SDS011;10508;50.956;4.640;2022-07-22T01:13:36;4.18;;;1.38;;
20697;SDS011;10508;50.956;4.640;2022-07-22T01:16:02;6.05;;;1.98;;
20697;SDS011;10508;50.956;4.640;2022-07-22T01:18:29;3.70;;;1.75;;
20697;SDS011;10508;50.956;4.640;2022-07-22T01:20:54;3.28;;;1.50;;
20697;SDS011;10508;50.956;4.640;2022-07-22T01:23:20;3.40;;;1.20;;
20697;SDS011;10508;50.956;4.640;2022-07-22T01:25:46;3.75;;;1.80;;
20697;SDS011;10508;50.956;4.640;2022-07-22T01:28:12;4.55;;;1.45;;
20697;SDS011;10508;50.956;4.640;2022-07-22T01:30:38;3.50;;;2.13;;
20697;SDS011;10508;50.956;4.640;2022-07-22T01:33:03;6.13;;;1.63;;
20697;SDS011;10508;50.956;4.640;2022-07-22T01:35:29;4.70;;;1.90;;
20697;SDS011;10508;50.956;4.640;2022-07-22T01:37:55;4.43;;;1.70;;
20697;SDS011;10508;50.956;4.640;2022-07-22T01:40:20;6.13;;;1.75;;
20697;SDS011;10508;50.956;4.640;2022-07-22T01:42:46;5.57;;;1.60;;
20697;SDS011;10508;50.956;4.640;2022-07-22T01:45:12;2.20;;;1.20;;
20697;SDS011;10508;50.956;4.640;2022-07-22T01:47:38;5.10;;;1.67;;
20697;SDS011;10508;50.956;4.640;2022-07-22T01:50:04;6.30;;;1.73;;
20697;SDS011;10508;50.956;4.640;2022-07-22T01:52:31;4.78;;;1.70;;
20697;SDS011;10508;50.956;4.640;2022-07-22T01:54:56;6.35;;;1.90;;
20697;SDS011;10508;50.956;4.640;2022-07-22T01:57:22;4.38;;;1.65;;
20697;SDS011;10508;50.956;4.640;2022-07-22T01:59:48;2.90;;;1.48;;
20697;SDS011;10508;50.956;4.640;2022-07-22T02:02:13;3.35;;;1.40;;
20697;SDS011;10508;50.956;4.640;2022-07-22T02:04:39;6.85;;;1.88;;
20697;SDS011;10508;50.956;4.640;2022-07-22T02:07:04;8.10;;;2.00;;
20697;SDS011;10508;50.956;4.640;2022-07-22T02:09:30;6.10;;;2.30;;
20697;SDS011;10508;50.956;4.640;2022-07-22T02:11:56;4.45;;;1.85;;
20697;SDS011;10508;50.956;4.640;2022-07-22T02:14:21;5.30;;;1.85;;
20697;SDS011;10508;50.956;4.640;2022-07-22T02:16:47;2.55;;;1.60;;
20697;SDS011;10508;50.956;4.640;2022-07-22T02:19:12;4.28;;;1.58;;
20697;SDS011;10508;50.956;4.640;2022-07-22T02:21:38;4.80;;;1.40;;
20697;SDS011;10508;50.956;4.640;2022-07-22T02:24:04;6.68;;;2.00;;
20697;SDS011;10508;50.956;4.640;2022-07-22T02:26:30;4.57;;;1.30;;
20697;SDS011;10508;50.956;4.640;2022-07-22T02:28:55;6.05;;;1.40;;
20697;SDS011;10508;50.956;4.640;2022-07-22T02:31:21;4.45;;;1.40;;
20697;SDS011;10508;50.956;4.640;2022-07-22T02:33:47;2.15;;;1.35;;
20697;SDS011;10508;50.956;4.640;2022-07-22T02:36:12;7.15;;;1.38;;
20697;SDS011;10508;50.956;4.640;2022-07-22T02:38:38;4.88;;;1.70;;
20697;SDS011;10508;50.956;4.640;2022-07-22T02:41:04;6.18;;;1.90;;
20697;SDS011;10508;50.956;4.640;2022-07-22T02:43:32;6.50;;;1.80;;
20697;SDS011;10508;50.956;4.640;2022-07-22T02:45:58;15.82;;;2.58;;
20697;SDS011;10508;50.956;4.640;2022-07-22T02:48:24;3.80;;;1.48;;
20697;SDS011;10508;50.956;4.640;2022-07-22T02:50:49;2.72;;;1.55;;
20697;SDS011;10508;50.956;4.640;2022-07-22T02:53:15;6.63;;;1.42;;
20697;SDS011;10508;50.956;4.640;2022-07-22T02:55:40;6.63;;;1.83;;
20697;SDS011;10508;50.956;4.640;2022-07-22T02:58:07;3.83;;;1.75;;
20697;SDS011;10508;50.956;4.640;2022-07-22T03:00:34;2.03;;;1.63;;
20697;SDS011;10508;50.956;4.640;2022-07-22T03:03:00;5.47;;;2.30;;
20697;SDS011;10508;50.956;4.640;2022-07-22T03:05:26;4.20;;;1.70;;
20697;SDS011;10508;50.956;4.640;2022-07-22T03:07:51;3.00;;;1.23;;
20697;SDS011;10508;50.956;4.640;2022-07-22T03:10:17;3.28;;;1.38;;
20697;SDS011;10508;50.956;4.640;2022-07-22T03:12:43;4.40;;;1.52;;
20697;SDS011;10508;50.956;4.640;2022-07-22T03:15:08;3.75;;;1.40;;
20697;SDS011;10508;50.956;4.640;2022-07-22T03:17:34;2.95;;;1.55;;
20697;SDS011;10508;50.956;4.640;2022-07-22T03:20:05;2.85;;;1.38;;
20697;SDS011;10508;50.956;4.640;2022-07-22T03:22:32;6.75;;;2.20;;
20697;SDS011;10508;50.956;4.640;2022-07-22T03:24:58;3.50;;;1.65;;
20697;SDS011;10508;50.956;4.640;2022-07-22T03:27:25;3.22;;;1.55;;
20697;SDS011;10508;50.956;4.640;2022-07-22T03:29:51;7.40;;;2.22;;
20697;SDS011;10508;50.956;4.640;2022-07-22T03:32:17;7.78;;;2.78;;
20697;SDS011;10508;50.956;4.640;2022-07-22T03:34:43;1.77;;;1.30;;
20697;SDS011;10508;50.956;4.640;2022-07-22T03:37:09;4.43;;;2.10;;
20697;SDS011;10508;50.956;4.640;2022-07-22T03:39:35;3.15;;;2.15;;
20697;SDS011;10508;50.956;4.640;2022-07-22T03:42:01;6.13;;;2.55;;
20697;SDS011;10508;50.956;4.640;2022-07-22T03:44:26;5.88;;;2.03;;
20697;SDS011;10508;50.956;4.640;2022-07-22T03:46:52;7.60;;;2.72;;
20697;SDS011;10508;50.956;4.640;2022-07-22T03:49:17;4.57;;;2.03;;
20697;SDS011;10508;50.956;4.640;2022-07-22T03:51:43;7.20;;;1.92;;
20697;SDS011;10508;50.956;4.640;2022-07-22T03:54:09;5.38;;;1.90;;
20697;SDS011;10508;50.956;4.640;2022-07-22T03:56:35;6.13;;;2.05;;
20697;SDS011;10508;50.956;4.640;2022-07-22T03:59:00;4.18;;;2.05;;
20697;SDS011;10508;50.956;4.640;2022-07-22T04:01:26;6.20;;;2.67;;
20697;SDS011;10508;50.956;4.640;2022-07-22T04:03:51;5.32;;;2.42;;
20697;SDS011;10508;50.956;4.640;2022-07-22T04:06:17;4.20;;;2.40;;
20697;SDS011;10508;50.956;4.640;2022-07-22T04:08:43;3.97;;;1.88;;
20697;SDS011;10508;50.956;4.640;2022-07-22T04:11:09;3.97;;;2.05;;
20697;SDS011;10508;50.956;4.640;2022-07-22T04:13:35;4.68;;;1.85;;
20697;SDS011;10508;50.956;4.640;2022-07-22T04:16:01;2.95;;;1.92;;
20697;SDS011;10508;50.956;4.640;2022-07-22T04:18:29;3.63;;;1.85;;
20697;SDS011;10508;50.956;4.640;2022-07-22T04:20:58;3.50;;;1.98;;
20697;SDS011;10508;50.956;4.640;2022-07-22T04:23:24;4.10;;;1.55;;
20697;SDS011;10508;50.956;4.640;2022-07-22T04:25:50;4.93;;;2.03;;
20697;SDS011;10508;50.956;4.640;2022-07-22T04:28:16;3.90;;;1.58;;
20697;SDS011;10508;50.956;4.640;2022-07-22T04:30:41;4.53;;;1.77;;
20697;SDS011;10508;50.956;4.640;2022-07-22T04:33:07;4.38;;;1.73;;
20697;SDS011;10508;50.956;4.640;2022-07-22T04:35:33;4.20;;;1.75;;
20697;SDS011;10508;50.956;4.640;2022-07-22T04:37:58;3.63;;;2.25;;
20697;SDS011;10508;50.956;4.640;2022-07-22T04:40:24;4.10;;;2.28;;
20697;SDS011;10508;50.956;4.640;2022-07-22T04:42:50;3.88;;;2.13;;
20697;SDS011;10508;50.956;4.640;2022-07-22T04:45:15;3.10;;;1.60;;
20697;SDS011;10508;50.956;4.640;2022-07-22T04:47:41;5.97;;;1.73;;
20697;SDS011;10508;50.956;4.640;2022-07-22T04:50:07;5.50;;;2.10;;
20697;SDS011;10508;50.956;4.640;2022-07-22T04:52:33;8.88;;;2.53;;
20697;SDS011;10508;50.956;4.640;2022-07-22T04:54:59;10.25;;;2.72;;
20697;SDS011;10508;50.956;4.640;2022-07-22T04:57:25;3.97;;;1.77;;
20697;SDS011;10508;50.956;4.640;2022-07-22T04:59:51;3.95;;;2.22;;
20697;SDS011;10508;50.956;4.640;2022-07-22T05:02:19;2.08;;;1.55;;
20697;SDS011;10508;50.956;4.640;2022-07-22T05:04:45;4.78;;;2.30;;
20697;SDS011;10508;50.956;4.640;2022-07-22T05:07:11;4.57;;;2.40;;
20697;SDS011;10508;50.956;4.640;2022-07-22T05:09:37;5.90;;;2.70;;
20697;SDS011;10508;50.956;4.640;2022-07-22T05:12:03;7.97;;;2.80;;
20697;SDS011;10508;50.956;4.640;2022-07-22T05:14:29;9.80;;;3.20;;
20697;SDS011;10508;50.956;4.640;2022-07-22T05:16:55;6.63;;;3.30;;
20697;SDS011;10508;50.956;4.640;2022-07-22T05:19:20;6.18;;;3.40;;
20697;SDS011;10508;50.956;4.640;2022-07-22T05:21:46;6.13;;;3.25;;
20697;SDS011;10508;50.956;4.640;2022-07-22T05:24:12;13.43;;;4.18;;
20697;SDS011;10508;50.956;4.640;2022-07-22T05:26:38;8.98;;;4.35;;
20697;SDS011;10508;50.956;4.640;2022-07-22T05:29:04;11.48;;;3.90;;
20697;SDS011;10508;50.956;4.640;2022-07-22T05:31:29;9.32;;;4.30;;
20697;SDS011;10508;50.956;4.640;2022-07-22T05:33:55;15.30;;;5.80;;
20697;SDS011;10508;50.956;4.640;2022-07-22T05:36:21;13.27;;;4.75;;
20697;SDS011;10508;50.956;4.640;2022-07-22T05:38:47;10.27;;;4.55;;
20697;SDS011;10508;50.956;4.640;2022-07-22T05:41:13;10.65;;;5.05;;
20697;SDS011;10508;50.956;4.640;2022-07-22T05:43:39;11.80;;;4.53;;
20697;SDS011;10508;50.956;4.640;2022-07-22T05:46:05;9.43;;;4.60;;
20697;SDS011;10508;50.956;4.640;2022-07-22T05:48:32;8.65;;;5.00;;
20697;SDS011;10508;50.956;4.640;2022-07-22T05:50:58;12.95;;;4.95;;
20697;SDS011;10508;50.956;4.640;2022-07-22T05:53:23;14.20;;;5.22;;
20697;SDS011;10508;50.956;4.640;2022-07-22T05:55:49;14.70;;;5.78;;
20697;SDS011;10508;50.956;4.640;2022-07-22T05:58:15;12.80;;;5.38;;
20697;SDS011;10508;50.956;4.640;2022-07-22T06:00:40;14.52;;;5.72;;
20697;SDS011;10508;50.956;4.640;2022-07-22T06:03:07;13.35;;;5.38;;
20697;SDS011;10508;50.956;4.640;2022-07-22T06:05:33;15.63;;;6.03;;
20697;SDS011;10508;50.956;4.640;2022-07-22T06:08:00;15.48;;;5.85;;
20697;SDS011;10508;50.956;4.640;2022-07-22T06:10:26;18.25;;;6.05;;
20697;SDS011;10508;50.956;4.640;2022-07-22T06:12:52;16.08;;;5.70;;
20697;SDS011;10508;50.956;4.640;2022-07-22T06:15:17;12.80;;;5.30;;
20697;SDS011;10508;50.956;4.640;2022-07-22T06:17:43;10.98;;;4.70;;
20697;SDS011;10508;50.956;4.640;2022-07-22T06:20:09;13.27;;;6.03;;
20697;SDS011;10508;50.956;4.640;2022-07-22T06:22:35;9.63;;;5.20;;
20697;SDS011;10508;50.956;4.640;2022-07-22T06:25:00;13.95;;;5.43;;
20697;SDS011;10508;50.956;4.640;2022-07-22T06:27:26;9.98;;;5.65;;
20697;SDS011;10508;50.956;4.640;2022-07-22T06:29:52;16.52;;;5.70;;
20697;SDS011;10508;50.956;4.640;2022-07-22T06:32:17;12.85;;;5.55;;
20697;SDS011;10508;50.956;4.640;2022-07-22T06:34:43;12.10;;;4.97;;
20697;SDS011;10508;50.956;4.640;2022-07-22T06:37:09;11.60;;;4.97;;
20697;SDS011;10508;50.956;4.640;2022-07-22T06:39:35;14.02;;;5.20;;
20697;SDS011;10508;50.956;4.640;2022-07-22T06:42:00;12.90;;;4.90;;
20697;SDS011;10508;50.956;4.640;2022-07-22T06:44:26;9.00;;;4.65;;
20697;SDS011;10508;50.956;4.640;2022-07-22T06:46:52;8.18;;;3.90;;
20697;SDS011;10508;50.956;4.640;2022-07-22T06:49:17;11.85;;;4.43;;
20697;SDS011;10508;50.956;4.640;2022-07-22T06:51:43;14.15;;;4.25;;
20697;SDS011;10508;50.956;4.640;2022-07-22T06:54:09;12.80;;;3.67;;
20697;SDS011;10508;50.956;4.640;2022-07-22T06:56:34;7.05;;;3.38;;
20697;SDS011;10508;50.956;4.640;2022-07-22T06:59:00;10.38;;;3.10;;
20697;SDS011;10508;50.956;4.640;2022-07-22T07:01:25;7.00;;;3.35;;
20697;SDS011;10508;50.956;4.640;2022-07-22T07:03:51;7.43;;;3.35;;
20697;SDS011;10508;50.956;4.640;2022-07-22T07:06:17;6.30;;;3.03;;
20697;SDS011;10508;50.956;4.640;2022-07-22T07:08:42;6.82;;;3.35;;
20697;SDS011;10508;50.956;4.640;2022-07-22T07:11:08;6.80;;;3.22;;
20697;SDS011;10508;50.956;4.640;2022-07-22T07:13:34;10.90;;;3.58;;
20697;SDS011;10508;50.956;4.640;2022-07-22T07:15:59;9.63;;;3.42;;
20697;SDS011;10508;50.956;4.640;2022-07-22T07:18:25;7.50;;;3.85;;
20697;SDS011;10508;50.956;4.640;2022-07-22T07:20:51;5.07;;;3.00;;
20697;SDS011;10508;50.956;4.640;2022-07-22T07:23:16;7.10;;;3.60;;
20697;SDS011;10508;50.956;4.640;2022-07-22T07:25:42;7.78;;;3.13;;
20697;SDS011;10508;50.956;4.640;2022-07-22T07:28:08;5.88;;;2.80;;
20697;SDS011;10508;50.956;4.640;2022-07-22T07:30:33;7.43;;;3.15;;
20697;SDS011;10508;50.956;4.640;2022-07-22T07:32:59;6.13;;;3.17;;
20697;SDS011;10508;50.956;4.640;2022-07-22T07:35:25;7.57;;;3.08;;
20697;SDS011;10508;50.956;4.640;2022-07-22T07:37:52;7.05;;;3.65;;
20697;SDS011;10508;50.956;4.640;2022-07-22T07:40:18;10.77;;;2.97;;
20697;SDS011;10508;50.956;4.640;2022-07-22T07:42:44;11.63;;;2.90;;
20697;SDS011;10508;50.956;4.640;2022-07-22T07:45:09;8.32;;;3.22;;
20697;SDS011;10508;50.956;4.640;2022-07-22T07:47:35;6.72;;;3.30;;
20697;SDS011;10508;50.956;4.640;2022-07-22T07:50:01;8.88;;;2.92;;
20697;SDS011;10508;50.956;4.640;2022-07-22T07:52:28;3.70;;;2.65;;
20697;SDS011;10508;50.956;4.640;2022-07-22T07:54:53;3.92;;;2.28;;
20697;SDS011;10508;50.956;4.640;2022-07-22T07:57:20;6.97;;;2.65;;
20697;SDS011;10508;50.956;4.640;2022-07-22T07:59:46;7.10;;;2.75;;
20697;SDS011;10508;50.956;4.640;2022-07-22T08:02:12;6.03;;;2.72;;
20697;SDS011;10508;50.956;4.640;2022-07-22T08:04:38;4.95;;;2.40;;
20697;SDS011;10508;50.956;4.640;2022-07-22T08:07:04;6.93;;;2.60;;
20697;SDS011;10508;50.956;4.640;2022-07-22T08:09:31;6.35;;;3.17;;
20697;SDS011;10508;50.956;4.640;2022-07-22T08:11:57;5.53;;;2.47;;
20697;SDS011;10508;50.956;4.640;2022-07-22T08:14:23;3.85;;;2.38;;
20697;SDS011;10508;50.956;4.640;2022-07-22T08:16:49;6.40;;;2.42;;
20697;SDS011;10508;50.956;4.640;2022-07-22T08:19:15;4.70;;;2.40;;
20697;SDS011;10508;50.956;4.640;2022-07-22T08:21:40;7.53;;;3.13;;
20697;SDS011;10508;50.956;4.640;2022-07-22T08:24:08;7.07;;;3.08;;
20697;SDS011;10508;50.956;4.640;2022-07-22T08:26:35;8.20;;;3.20;;
20697;SDS011;10508;50.956;4.640;2022-07-22T08:29:01;5.70;;;2.55;;
20697;SDS011;10508;50.956;4.640;2022-07-22T08:31:28;7.32;;;2.47;;
20697;SDS011;10508;50.956;4.640;2022-07-22T08:33:53;6.30;;;2.40;;
20697;SDS011;10508;50.956;4.640;2022-07-22T08:36:19;5.22;;;2.75;;
20697;SDS011;10508;50.956;4.640;2022-07-22T08:38:45;3.75;;;3.00;;
20697;SDS011;10508;50.956;4.640;2022-07-22T08:41:10;7.85;;;2.88;;
20697;SDS011;10508;50.956;4.640;2022-07-22T08:43:39;5.78;;;2.60;;
20697;SDS011;10508;50.956;4.640;2022-07-22T08:46:07;4.20;;;2.55;;
20697;SDS011;10508;50.956;4.640;2022-07-22T08:48:33;5.55;;;2.28;;
20697;SDS011;10508;50.956;4.640;2022-07-22T08:51:02;8.30;;;2.08;;
20697;SDS011;10508;50.956;4.640;2022-07-22T08:53:27;4.93;;;2.72;;
20697;SDS011;10508;50.956;4.640;2022-07-22T08:55:53;6.43;;;2.72;;
20697;SDS011;10508;50.956;4.640;2022-07-22T08:58:19;8.05;;;3.13;;
20697;SDS011;10508;50.956;4.640;2022-07-22T09:00:45;3.17;;;2.30;;
20697;SDS011;10508;50.956;4.640;2022-07-22T09:03:17;7.15;;;2.50;;
20697;SDS011;10508;50.956;4.640;2022-07-22T09:05:51;7.82;;;3.17;;
20697;SDS011;10508;50.956;4.640;2022-07-22T09:08:17;5.40;;;2.50;;
20697;SDS011;10508;50.956;4.640;2022-07-22T09:10:44;4.63;;;2.50;;
20697;SDS011;10508;50.956;4.640;2022-07-22T09:13:10;9.07;;;3.28;;
20697;SDS011;10508;50.956;4.640;2022-07-22T09:15:37;7.22;;;3.53;;
20697;SDS011;10508;50.956;4.640;2022-07-22T09:18:10;4.55;;;2.88;;
20697;SDS011;10508;50.956;4.640;2022-07-22T09:20:36;3.55;;;2.38;;
20697;SDS011;10508;50.956;4.640;2022-07-22T09:23:08;5.35;;;2.67;;
20697;SDS011;10508;50.956;4.640;2022-07-22T09:25:47;5.10;;;2.53;;
20697;SDS011;10508;50.956;4.640;2022-07-22T09:28:18;4.63;;;2.75;;
20697;SDS011;10508;50.956;4.640;2022-07-22T09:30:49;3.72;;;2.40;;
20697;SDS011;10508;50.956;4.640;2022-07-22T09:33:17;6.72;;;2.80;;
20697;SDS011;10508;50.956;4.640;2022-07-22T09:35:43;6.35;;;2.90;;
20697;SDS011;10508;50.956;4.640;2022-07-22T09:38:11;4.20;;;2.83;;
20697;SDS011;10508;50.956;4.640;2022-07-22T09:40:41;4.78;;;2.53;;
20697;SDS011;10508;50.956;4.640;2022-07-22T09:43:12;4.90;;;2.78;;
20697;SDS011;10508;50.956;4.640;2022-07-22T09:48:16;7.90;;;3.20;;
20697;SDS011;10508;50.956;4.640;2022-07-22T09:50:43;5.05;;;3.10;;
20697;SDS011;10508;50.956;4.640;2022-07-22T09:53:09;5.43;;;3.10;;
20697;SDS011;10508;50.956;4.640;2022-07-22T09:55:35;3.95;;;2.60;;
20697;SDS011;10508;50.956;4.640;2022-07-22T09:58:04;6.95;;;3.17;;
20697;SDS011;10508;50.956;4.640;2022-07-22T10:00:32;5.88;;;3.22;;
20697;SDS011;10508;50.956;4.640;2022-07-22T10:03:00;5.25;;;2.97;;
20697;SDS011;10508;50.956;4.640;2022-07-22T10:05:28;5.13;;;2.90;;
20697;SDS011;10508;50.956;4.640;2022-07-22T10:07:59;5.60;;;3.45;;
20697;SDS011;10508;50.956;4.640;2022-07-22T10:10:27;4.90;;;2.80;;
20697;SDS011;10508;50.956;4.640;2022-07-22T10:12:54;6.07;;;2.67;;
20697;SDS011;10508;50.956;4.640;2022-07-22T10:15:21;7.05;;;3.03;;
20697;SDS011;10508;50.956;4.640;2022-07-22T10:17:49;5.72;;;3.53;;
20697;SDS011;10508;50.956;4.640;2022-07-22T10:20:18;9.85;;;2.72;;
20697;SDS011;10508;50.956;4.640;2022-07-22T10:25:16;5.60;;;3.30;;
20697;SDS011;10508;50.956;4.640;2022-07-22T10:30:12;6.30;;;2.78;;
20697;SDS011;10508;50.956;4.640;2022-07-22T10:32:40;8.27;;;3.20;;
20697;SDS011;10508;50.956;4.640;2022-07-22T10:40:21;4.60;;;3.00;;
20697;SDS011;10508;50.956;4.640;2022-07-22T10:45:30;6.07;;;3.22;;
20697;SDS011;10508;50.956;4.640;2022-07-22T10:47:58;6.97;;;3.33;;
20697;SDS011;10508;50.956;4.640;2022-07-22T10:53:06;6.75;;;3.22;;
20697;SDS011;10508;50.956;4.640;2022-07-22T10:55:34;3.92;;;2.78;;
20697;SDS011;10508;50.956;4.640;2022-07-22T10:58:00;5.35;;;2.83;;
20697;SDS011;10508;50.956;4.640;2022-07-22T11:00:45;5.88;;;3.22;;
20697;SDS011;10508;50.956;4.640;2022-07-22T11:03:10;5.50;;;3.28;;
20697;SDS011;10508;50.956;4.640;2022-07-22T11:05:36;5.53;;;3.10;;
20697;SDS011;10508;50.956;4.640;2022-07-22T11:08:02;5.70;;;3.15;;
20697;SDS011;10508;50.956;4.640;2022-07-22T11:10:34;5.28;;;2.90;;
20697;SDS011;10508;50.956;4.640;2022-07-22T11:12:59;7.82;;;3.22;;
20697;SDS011;10508;50.956;4.640;2022-07-22T11:15:25;5.00;;;2.88;;
20697;SDS011;10508;50.956;4.640;2022-07-22T11:17:55;6.45;;;2.60;;
20697;SDS011;10508;50.956;4.640;2022-07-22T11:20:22;5.72;;;2.88;;
20697;SDS011;10508;50.956;4.640;2022-07-22T11:22:48;4.53;;;2.80;;
20697;SDS011;10508;50.956;4.640;2022-07-22T11:25:14;5.13;;;3.22;;
20697;SDS011;10508;50.956;4.640;2022-07-22T11:27:48;5.65;;;2.90;;
20697;SDS011;10508;50.956;4.640;2022-07-22T11:30:17;4.82;;;2.75;;
20697;SDS011;10508;50.956;4.640;2022-07-22T11:32:43;4.78;;;2.60;;
20697;SDS011;10508;50.956;4.640;2022-07-22T11:35:12;5.57;;;2.85;;
20697;SDS011;10508;50.956;4.640;2022-07-22T11:37:38;5.65;;;3.00;;
20697;SDS011;10508;50.956;4.640;2022-07-22T11:40:04;6.85;;;2.85;;
20697;SDS011;10508;50.956;4.640;2022-07-22T11:42:32;5.30;;;3.00;;
20697;SDS011;10508;50.956;4.640;2022-07-22T11:44:57;6.90;;;3.10;;
20697;SDS011;10508;50.956;4.640;2022-07-22T11:47:24;4.32;;;2.47;;
20697;SDS011;10508;50.956;4.640;2022-07-22T11:49:49;7.10;;;2.75;;
20697;SDS011;10508;50.956;4.640;2022-07-22T11:52:15;7.55;;;3.50;;
20697;SDS011;10508;50.956;4.640;2022-07-22T11:54:59;4.55;;;3.15;;
20697;SDS011;10508;50.956;4.640;2022-07-22T11:57:25;5.57;;;2.95;;
20697;SDS011;10508;50.956;4.640;2022-07-22T11:59:51;4.30;;;2.80;;
20697;SDS011;10508;50.956;4.640;2022-07-22T12:02:16;6.32;;;2.70;;
20697;SDS011;10508;50.956;4.640;2022-07-22T12:04:43;3.88;;;2.50;;
20697;SDS011;10508;50.956;4.640;2022-07-22T12:07:11;6.47;;;3.40;;
20697;SDS011;10508;50.956;4.640;2022-07-22T12:09:37;6.32;;;2.60;;
20697;SDS011;10508;50.956;4.640;2022-07-22T12:12:06;4.07;;;2.30;;
20697;SDS011;10508;50.956;4.640;2022-07-22T12:14:32;5.47;;;2.78;;
20697;SDS011;10508;50.956;4.640;2022-07-22T12:17:05;4.78;;;2.58;;
20697;SDS011;10508;50.956;4.640;2022-07-22T12:19:35;7.82;;;3.17;;
20697;SDS011;10508;50.956;4.640;2022-07-22T12:24:34;5.95;;;2.47;;
20697;SDS011;10508;50.956;4.640;2022-07-22T12:27:07;5.05;;;2.55;;
20697;SDS011;10508;50.956;4.640;2022-07-22T12:32:04;6.55;;;2.88;;
20697;SDS011;10508;50.956;4.640;2022-07-22T12:34:32;7.82;;;2.83;;
20697;SDS011;10508;50.956;4.640;2022-07-22T12:42:24;4.25;;;2.45;;
20697;SDS011;10508;50.956;4.640;2022-07-22T12:45:33;7.45;;;2.53;;
20697;SDS011;10508;50.956;4.640;2022-07-22T12:50:15;6.00;;;2.92;;
20697;SDS011;10508;50.956;4.640;2022-07-22T12:52:50;5.25;;;3.40;;
20697;SDS011;10508;50.956;4.640;2022-07-22T12:55:21;10.50;;;3.58;;
20697;SDS011;10508;50.956;4.640;2022-07-22T12:57:47;4.78;;;2.45;;
20697;SDS011;10508;50.956;4.640;2022-07-22T13:00:23;4.20;;;2.65;;
20697;SDS011;10508;50.956;4.640;2022-07-22T13:02:51;5.07;;;2.60;;
20697;SDS011;10508;50.956;4.640;2022-07-22T13:05:17;5.57;;;2.22;;
20697;SDS011;10508;50.956;4.640;2022-07-22T13:07:44;5.72;;;2.85;;
20697;SDS011;10508;50.956;4.640;2022-07-22T13:10:11;9.10;;;3.20;;
20697;SDS011;10508;50.956;4.640;2022-07-22T13:12:38;3.97;;;2.78;;
20697;SDS011;10508;50.956;4.640;2022-07-22T13:15:04;3.70;;;2.38;;
20697;SDS011;10508;50.956;4.640;2022-07-22T13:17:30;6.07;;;2.78;;
20697;SDS011;10508;50.956;4.640;2022-07-22T13:19:56;8.65;;;3.00;;
20697;SDS011;10508;50.956;4.640;2022-07-22T13:22:22;4.90;;;3.00;;
20697;SDS011;10508;50.956;4.640;2022-07-22T13:24:47;4.65;;;2.50;;
20697;SDS011;10508;50.956;4.640;2022-07-22T13:27:13;6.93;;;2.58;;
20697;SDS011;10508;50.956;4.640;2022-07-22T13:29:40;8.30;;;2.42;;
20697;SDS011;10508;50.956;4.640;2022-07-22T13:32:05;8.55;;;3.13;;
20697;SDS011;10508;50.956;4.640;2022-07-22T13:34:31;3.92;;;2.60;;
20697;SDS011;10508;50.956;4.640;2022-07-22T13:36:57;4.53;;;2.33;;
20697;SDS011;10508;50.956;4.640;2022-07-22T13:39:23;4.80;;;2.75;;
20697;SDS011;10508;50.956;4.640;2022-07-22T13:41:49;3.83;;;2.58;;
20697;SDS011;10508;50.956;4.640;2022-07-22T13:44:15;5.55;;;2.80;;
20697;SDS011;10508;50.956;4.640;2022-07-22T13:46:40;5.60;;;2.97;;
20697;SDS011;10508;50.956;4.640;2022-07-22T13:49:06;4.38;;;3.00;;
20697;SDS011;10508;50.956;4.640;2022-07-22T13:51:32;6.85;;;2.95;;
20697;SDS011;10508;50.956;4.640;2022-07-22T13:53:57;7.50;;;2.72;;
20697;SDS011;10508;50.956;4.640;2022-07-22T13:56:23;8.50;;;2.53;;
20697;SDS011;10508;50.956;4.640;2022-07-22T13:58:49;6.82;;;2.88;;
20697;SDS011;10508;50.956;4.640;2022-07-22T14:01:15;5.85;;;2.88;;
20697;SDS011;10508;50.956;4.640;2022-07-22T14:03:41;10.50;;;3.38;;
20697;SDS011;10508;50.956;4.640;2022-07-22T14:06:07;5.85;;;2.80;;
20697;SDS011;10508;50.956;4.640;2022-07-22T14:08:34;5.47;;;2.60;;
20697;SDS011;10508;50.956;4.640;2022-07-22T14:11:00;4.47;;;2.95;;
20697;SDS011;10508;50.956;4.640;2022-07-22T14:13:27;4.47;;;2.78;;
20697;SDS011;10508;50.956;4.640;2022-07-22T14:15:53;7.07;;;2.90;;
20697;SDS011;10508;50.956;4.640;2022-07-22T14:18:18;6.18;;;2.95;;
20697;SDS011;10508;50.956;4.640;2022-07-22T14:20:44;4.72;;;2.95;;
20697;SDS011;10508;50.956;4.640;2022-07-22T14:23:10;6.57;;;3.38;;
20697;SDS011;10508;50.956;4.640;2022-07-22T14:25:37;7.47;;;3.00;;
20697;SDS011;10508;50.956;4.640;2022-07-22T14:28:03;9.32;;;3.63;;
20697;SDS011;10508;50.956;4.640;2022-07-22T14:30:30;8.32;;;2.72;;
20697;SDS011;10508;50.956;4.640;2022-07-22T14:32:56;6.72;;;3.00;;
20697;SDS011;10508;50.956;4.640;2022-07-22T14:35:21;6.22;;;3.10;;
20697;SDS011;10508;50.956;4.640;2022-07-22T14:37:48;8.05;;;3.03;;
20697;SDS011;10508;50.956;4.640;2022-07-22T14:40:14;7.65;;;3.38;;
20697;SDS011;10508;50.956;4.640;2022-07-22T14:42:40;5.13;;;3.15;;
20697;SDS011;10508;50.956;4.640;2022-07-22T14:45:06;4.78;;;2.53;;
20697;SDS011;10508;50.956;4.640;2022-07-22T14:47:34;7.63;;;3.78;;
20697;SDS011;10508;50.956;4.640;2022-07-22T14:50:01;4.40;;;3.47;;
20697;SDS011;10508;50.956;4.640;2022-07-22T14:52:28;7.47;;;3.30;;
20697;SDS011;10508;50.956;4.640;2022-07-22T14:55:08;6.72;;;4.00;;
20697;SDS011;10508;50.956;4.640;2022-07-22T14:57:34;5.72;;;3.67;;
20697;SDS011;10508;50.956;4.640;2022-07-22T14:59:59;8.13;;;3.58;;
20697;SDS011;10508;50.956;4.640;2022-07-22T15:02:25;7.07;;;3.75;;
20697;SDS011;10508;50.956;4.640;2022-07-22T15:04:51;9.25;;;4.15;;
20697;SDS011;10508;50.956;4.640;2022-07-22T15:07:16;7.53;;;3.53;;
20697;SDS011;10508;50.956;4.640;2022-07-22T15:09:42;5.28;;;3.80;;
20697;SDS011;10508;50.956;4.640;2022-07-22T15:12:08;5.47;;;3.55;;